sensor_id;sensor_type;location;lat;lon;timestamp;P1;durP1;ratioP1;P2;durP2;ratioP2
60665;SDS011;59128;44.642;21.188;2024-02-26T00:01:53;16.90;;;15.10;;
60665;SDS011;59128;44.642;21.188;2024-02-26T00:04:19;22.15;;;18.95;;
60665;SDS011;59128;44.642;21.188;2024-02-26T00:06:46;17.90;;;16.08;;
60665;SDS011;59128;44.642;21.188;2024-02-26T00:09:15;21.63;;;18.92;;
60665;SDS011;59128;44.642;21.188;2024-02-26T00:11:41;19.48;;;17.30;;
60665;SDS011;59128;44.642;21.188;2024-02-26T00:14:07;18.83;;;16.23;;
60665;SDS011;59128;44.642;21.188;2024-02-26T00:16:33;18.63;;;16.42;;
60665;SDS011;59128;44.642;21.188;2024-02-26T00:18:59;24.05;;;20.23;;
60665;SDS011;59128;44.642;21.188;2024-02-26T00:21:25;28.67;;;23.00;;
60665;SDS011;59128;44.642;21.188;2024-02-26T00:23:52;27.80;;;23.40;;
60665;SDS011;59128;44.642;21.188;2024-02-26T00:26:19;28.48;;;23.48;;
60665;SDS011;59128;44.642;21.188;2024-02-26T00:28:45;29.60;;;24.05;;
60665;SDS011;59128;44.642;21.188;2024-02-26T00:31:11;25.00;;;21.73;;
60665;SDS011;59128;44.642;21.188;2024-02-26T00:33:37;28.52;;;24.00;;
60665;SDS011;59128;44.642;21.188;2024-02-26T00:36:03;35.17;;;27.88;;
60665;SDS011;59128;44.642;21.188;2024-02-26T00:38:29;33.95;;;27.27;;
60665;SDS011;59128;44.642;21.188;2024-02-26T00:40:55;25.50;;;20.95;;
60665;SDS011;59128;44.642;21.188;2024-02-26T00:43:21;32.97;;;26.70;;
60665;SDS011;59128;44.642;21.188;2024-02-26T00:45:48;45.20;;;33.83;;
60665;SDS011;59128;44.642;21.188;2024-02-26T00:48:14;33.85;;;27.35;;
60665;SDS011;59128;44.642;21.188;2024-02-26T00:50:40;51.63;;;37.07;;
60665;SDS011;59128;44.642;21.188;2024-02-26T00:53:07;37.27;;;28.43;;
60665;SDS011;59128;44.642;21.188;2024-02-26T00:55:33;33.47;;;26.85;;
60665;SDS011;59128;44.642;21.188;2024-02-26T00:57:59;41.08;;;32.72;;
60665;SDS011;59128;44.642;21.188;2024-02-26T01:00:25;37.70;;;30.48;;
60665;SDS011;59128;44.642;21.188;2024-02-26T01:02:52;41.53;;;33.05;;
60665;SDS011;59128;44.642;21.188;2024-02-26T01:05:19;50.15;;;38.38;;
60665;SDS011;59128;44.642;21.188;2024-02-26T01:07:45;61.50;;;45.20;;
60665;SDS011;59128;44.642;21.188;2024-02-26T01:10:11;39.00;;;30.83;;
60665;SDS011;59128;44.642;21.188;2024-02-26T01:12:37;34.13;;;28.13;;
60665;SDS011;59128;44.642;21.188;2024-02-26T01:15:03;38.40;;;31.70;;
60665;SDS011;59128;44.642;21.188;2024-02-26T01:17:29;41.17;;;33.47;;
60665;SDS011;59128;44.642;21.188;2024-02-26T01:19:56;41.75;;;34.10;;
60665;SDS011;59128;44.642;21.188;2024-02-26T01:22:22;40.97;;;32.85;;
60665;SDS011;59128;44.642;21.188;2024-02-26T01:24:48;30.67;;;26.40;;
60665;SDS011;59128;44.642;21.188;2024-02-26T01:27:14;33.70;;;27.85;;
60665;SDS011;59128;44.642;21.188;2024-02-26T01:29:41;27.88;;;23.73;;
60665;SDS011;59128;44.642;21.188;2024-02-26T01:32:07;25.15;;;21.38;;
60665;SDS011;59128;44.642;21.188;2024-02-26T01:34:33;30.00;;;26.37;;
60665;SDS011;59128;44.642;21.188;2024-02-26T01:36:59;28.02;;;24.70;;
60665;SDS011;59128;44.642;21.188;2024-02-26T01:39:25;25.35;;;22.65;;
60665;SDS011;59128;44.642;21.188;2024-02-26T01:41:54;27.63;;;24.65;;
60665;SDS011;59128;44.642;21.188;2024-02-26T01:44:20;36.50;;;29.90;;
60665;SDS011;59128;44.642;21.188;2024-02-26T01:46:46;26.03;;;23.23;;
60665;SDS011;59128;44.642;21.188;2024-02-26T01:49:12;32.65;;;26.27;;
60665;SDS011;59128;44.642;21.188;2024-02-26T01:51:39;28.23;;;23.23;;
60665;SDS011;59128;44.642;21.188;2024-02-26T01:54:05;25.60;;;22.75;;
60665;SDS011;59128;44.642;21.188;2024-02-26T01:56:33;34.08;;;28.27;;
60665;SDS011;59128;44.642;21.188;2024-02-26T01:59:01;34.55;;;28.30;;
60665;SDS011;59128;44.642;21.188;2024-02-26T02:01:27;32.28;;;27.25;;
60665;SDS011;59128;44.642;21.188;2024-02-26T02:03:58;29.92;;;25.00;;
60665;SDS011;59128;44.642;21.188;2024-02-26T02:06:24;30.33;;;25.80;;
60665;SDS011;59128;44.642;21.188;2024-02-26T02:08:52;32.03;;;27.00;;
60665;SDS011;59128;44.642;21.188;2024-02-26T02:11:18;34.35;;;27.55;;
60665;SDS011;59128;44.642;21.188;2024-02-26T02:13:44;32.93;;;27.30;;
60665;SDS011;59128;44.642;21.188;2024-02-26T02:16:11;38.85;;;30.52;;
60665;SDS011;59128;44.642;21.188;2024-02-26T02:18:37;31.50;;;25.20;;
60665;SDS011;59128;44.642;21.188;2024-02-26T02:21:03;38.40;;;29.83;;
60665;SDS011;59128;44.642;21.188;2024-02-26T02:23:29;38.28;;;29.58;;
60665;SDS011;59128;44.642;21.188;2024-02-26T02:25:55;32.30;;;26.25;;
60665;SDS011;59128;44.642;21.188;2024-02-26T02:28:22;28.08;;;24.50;;
60665;SDS011;59128;44.642;21.188;2024-02-26T02:30:48;39.90;;;30.60;;
60665;SDS011;59128;44.642;21.188;2024-02-26T02:33:15;32.63;;;26.42;;
60665;SDS011;59128;44.642;21.188;2024-02-26T02:35:41;33.08;;;26.63;;
60665;SDS011;59128;44.642;21.188;2024-02-26T02:38:07;46.30;;;33.60;;
60665;SDS011;59128;44.642;21.188;2024-02-26T02:40:33;38.27;;;29.83;;
60665;SDS011;59128;44.642;21.188;2024-02-26T02:42:59;29.23;;;25.25;;
60665;SDS011;59128;44.642;21.188;2024-02-26T02:45:27;44.25;;;32.70;;
60665;SDS011;59128;44.642;21.188;2024-02-26T02:47:53;38.72;;;29.35;;
60665;SDS011;59128;44.642;21.188;2024-02-26T02:50:19;44.58;;;33.35;;
60665;SDS011;59128;44.642;21.188;2024-02-26T02:52:45;38.57;;;29.53;;
60665;SDS011;59128;44.642;21.188;2024-02-26T02:55:12;55.17;;;38.83;;
60665;SDS011;59128;44.642;21.188;2024-02-26T02:57:38;36.03;;;27.75;;
60665;SDS011;59128;44.642;21.188;2024-02-26T03:00:06;34.15;;;27.23;;
60665;SDS011;59128;44.642;21.188;2024-02-26T03:02:33;42.15;;;31.55;;
60665;SDS011;59128;44.642;21.188;2024-02-26T03:05:01;44.95;;;32.92;;
60665;SDS011;59128;44.642;21.188;2024-02-26T03:07:27;36.10;;;27.55;;
60665;SDS011;59128;44.642;21.188;2024-02-26T03:09:53;42.20;;;31.33;;
60665;SDS011;59128;44.642;21.188;2024-02-26T03:12:19;38.25;;;29.35;;
60665;SDS011;59128;44.642;21.188;2024-02-26T03:14:45;39.33;;;30.23;;
60665;SDS011;59128;44.642;21.188;2024-02-26T03:17:11;28.42;;;24.58;;
60665;SDS011;59128;44.642;21.188;2024-02-26T03:19:37;29.42;;;24.70;;
60665;SDS011;59128;44.642;21.188;2024-02-26T03:22:04;29.00;;;24.83;;
60665;SDS011;59128;44.642;21.188;2024-02-26T03:24:30;28.05;;;24.98;;
60665;SDS011;59128;44.642;21.188;2024-02-26T03:26:56;35.70;;;27.50;;
60665;SDS011;59128;44.642;21.188;2024-02-26T03:29:22;30.10;;;25.17;;
60665;SDS011;59128;44.642;21.188;2024-02-26T03:31:48;32.80;;;27.15;;
60665;SDS011;59128;44.642;21.188;2024-02-26T03:34:14;28.27;;;24.83;;
60665;SDS011;59128;44.642;21.188;2024-02-26T03:36:41;36.40;;;28.05;;
60665;SDS011;59128;44.642;21.188;2024-02-26T03:39:07;29.98;;;25.75;;
60665;SDS011;59128;44.642;21.188;2024-02-26T03:41:34;32.70;;;26.88;;
60665;SDS011;59128;44.642;21.188;2024-02-26T03:44:00;26.50;;;23.60;;
60665;SDS011;59128;44.642;21.188;2024-02-26T03:46:26;31.42;;;25.98;;
60665;SDS011;59128;44.642;21.188;2024-02-26T03:48:52;33.93;;;27.53;;
60665;SDS011;59128;44.642;21.188;2024-02-26T03:51:18;35.28;;;28.35;;
60665;SDS011;59128;44.642;21.188;2024-02-26T03:53:44;30.48;;;24.85;;
60665;SDS011;59128;44.642;21.188;2024-02-26T03:56:11;34.15;;;27.80;;
60665;SDS011;59128;44.642;21.188;2024-02-26T03:58:40;31.35;;;25.27;;
60665;SDS011;59128;44.642;21.188;2024-02-26T04:01:07;32.00;;;26.25;;
60665;SDS011;59128;44.642;21.188;2024-02-26T04:03:34;29.58;;;25.27;;
60665;SDS011;59128;44.642;21.188;2024-02-26T04:06:00;28.55;;;24.77;;
60665;SDS011;59128;44.642;21.188;2024-02-26T04:08:26;28.02;;;24.08;;
60665;SDS011;59128;44.642;21.188;2024-02-26T04:10:52;32.60;;;26.27;;
60665;SDS011;59128;44.642;21.188;2024-02-26T04:13:18;38.65;;;29.33;;
60665;SDS011;59128;44.642;21.188;2024-02-26T04:15:44;40.00;;;30.57;;
60665;SDS011;59128;44.642;21.188;2024-02-26T04:18:11;34.75;;;27.98;;
60665;SDS011;59128;44.642;21.188;2024-02-26T04:20:39;29.77;;;25.38;;
60665;SDS011;59128;44.642;21.188;2024-02-26T04:23:07;31.38;;;25.65;;
60665;SDS011;59128;44.642;21.188;2024-02-26T04:25:33;33.20;;;27.25;;
60665;SDS011;59128;44.642;21.188;2024-02-26T04:27:59;36.87;;;29.17;;
60665;SDS011;59128;44.642;21.188;2024-02-26T04:30:25;33.17;;;27.95;;
60665;SDS011;59128;44.642;21.188;2024-02-26T04:32:51;29.70;;;25.58;;
60665;SDS011;59128;44.642;21.188;2024-02-26T04:35:17;35.05;;;28.08;;
60665;SDS011;59128;44.642;21.188;2024-02-26T04:37:43;31.65;;;25.85;;
60665;SDS011;59128;44.642;21.188;2024-02-26T04:40:09;26.40;;;23.52;;
60665;SDS011;59128;44.642;21.188;2024-02-26T04:42:35;27.08;;;23.73;;
60665;SDS011;59128;44.642;21.188;2024-02-26T04:45:01;28.87;;;25.60;;
60665;SDS011;59128;44.642;21.188;2024-02-26T04:47:28;28.13;;;25.02;;
60665;SDS011;59128;44.642;21.188;2024-02-26T04:49:55;26.50;;;23.23;;
60665;SDS011;59128;44.642;21.188;2024-02-26T04:52:21;26.80;;;23.73;;
60665;SDS011;59128;44.642;21.188;2024-02-26T04:54:47;28.75;;;24.52;;
60665;SDS011;59128;44.642;21.188;2024-02-26T04:57:13;26.08;;;23.15;;
60665;SDS011;59128;44.642;21.188;2024-02-26T04:59:39;28.98;;;25.05;;
60665;SDS011;59128;44.642;21.188;2024-02-26T05:02:07;29.02;;;24.98;;
60665;SDS011;59128;44.642;21.188;2024-02-26T05:04:33;27.92;;;24.25;;
60665;SDS011;59128;44.642;21.188;2024-02-26T05:06:59;28.33;;;23.67;;
60665;SDS011;59128;44.642;21.188;2024-02-26T05:09:25;29.45;;;25.23;;
60665;SDS011;59128;44.642;21.188;2024-02-26T05:11:51;26.98;;;23.38;;
60665;SDS011;59128;44.642;21.188;2024-02-26T05:14:17;27.13;;;24.17;;
60665;SDS011;59128;44.642;21.188;2024-02-26T05:16:43;29.65;;;25.58;;
60665;SDS011;59128;44.642;21.188;2024-02-26T05:19:09;27.40;;;23.03;;
60665;SDS011;59128;44.642;21.188;2024-02-26T05:21:35;29.05;;;24.80;;
60665;SDS011;59128;44.642;21.188;2024-02-26T05:24:02;28.90;;;25.40;;
60665;SDS011;59128;44.642;21.188;2024-02-26T05:26:28;29.33;;;24.73;;
60665;SDS011;59128;44.642;21.188;2024-02-26T05:28:54;27.77;;;24.27;;
60665;SDS011;59128;44.642;21.188;2024-02-26T05:31:24;26.98;;;24.02;;
60665;SDS011;59128;44.642;21.188;2024-02-26T05:33:50;26.80;;;23.70;;
60665;SDS011;59128;44.642;21.188;2024-02-26T05:36:23;25.58;;;22.77;;
60665;SDS011;59128;44.642;21.188;2024-02-26T05:38:50;33.53;;;29.77;;
60665;SDS011;59128;44.642;21.188;2024-02-26T05:41:16;30.77;;;26.67;;
60665;SDS011;59128;44.642;21.188;2024-02-26T05:43:52;30.17;;;26.50;;
60665;SDS011;59128;44.642;21.188;2024-02-26T05:46:18;28.92;;;25.40;;
60665;SDS011;59128;44.642;21.188;2024-02-26T05:48:49;28.85;;;25.73;;
60665;SDS011;59128;44.642;21.188;2024-02-26T05:51:15;30.42;;;27.13;;
60665;SDS011;59128;44.642;21.188;2024-02-26T05:53:41;26.52;;;23.00;;
60665;SDS011;59128;44.642;21.188;2024-02-26T05:56:07;28.30;;;25.20;;
60665;SDS011;59128;44.642;21.188;2024-02-26T05:58:33;29.30;;;25.40;;
60665;SDS011;59128;44.642;21.188;2024-02-26T06:00:59;27.80;;;24.67;;
60665;SDS011;59128;44.642;21.188;2024-02-26T06:03:26;30.95;;;25.63;;
60665;SDS011;59128;44.642;21.188;2024-02-26T06:05:52;30.65;;;26.52;;
60665;SDS011;59128;44.642;21.188;2024-02-26T06:08:18;31.00;;;26.93;;
60665;SDS011;59128;44.642;21.188;2024-02-26T06:10:44;32.88;;;28.75;;
60665;SDS011;59128;44.642;21.188;2024-02-26T06:13:10;27.42;;;24.42;;
60665;SDS011;59128;44.642;21.188;2024-02-26T06:15:36;31.08;;;27.40;;
60665;SDS011;59128;44.642;21.188;2024-02-26T06:18:02;33.00;;;28.40;;
60665;SDS011;59128;44.642;21.188;2024-02-26T06:20:29;27.33;;;24.42;;
60665;SDS011;59128;44.642;21.188;2024-02-26T06:22:55;29.83;;;26.50;;
60665;SDS011;59128;44.642;21.188;2024-02-26T06:25:21;29.83;;;25.50;;
60665;SDS011;59128;44.642;21.188;2024-02-26T06:27:47;24.70;;;22.10;;
60665;SDS011;59128;44.642;21.188;2024-02-26T06:30:13;26.85;;;23.98;;
60665;SDS011;59128;44.642;21.188;2024-02-26T06:32:39;25.02;;;22.40;;
60665;SDS011;59128;44.642;21.188;2024-02-26T06:35:05;24.60;;;22.00;;
60665;SDS011;59128;44.642;21.188;2024-02-26T06:37:33;25.95;;;23.25;;
60665;SDS011;59128;44.642;21.188;2024-02-26T06:40:02;23.97;;;21.47;;
60665;SDS011;59128;44.642;21.188;2024-02-26T06:42:34;24.63;;;22.00;;
60665;SDS011;59128;44.642;21.188;2024-02-26T06:45:01;25.10;;;22.40;;
60665;SDS011;59128;44.642;21.188;2024-02-26T06:47:29;23.75;;;21.27;;
60665;SDS011;59128;44.642;21.188;2024-02-26T06:49:55;22.17;;;19.85;;
60665;SDS011;59128;44.642;21.188;2024-02-26T06:52:23;23.17;;;20.73;;
60665;SDS011;59128;44.642;21.188;2024-02-26T06:54:50;25.10;;;22.40;;
60665;SDS011;59128;44.642;21.188;2024-02-26T06:57:18;22.42;;;20.13;;
60665;SDS011;59128;44.642;21.188;2024-02-26T06:59:44;23.60;;;21.15;;
60665;SDS011;59128;44.642;21.188;2024-02-26T07:02:12;24.33;;;21.83;;
60665;SDS011;59128;44.642;21.188;2024-02-26T07:04:38;22.42;;;20.13;;
60665;SDS011;59128;44.642;21.188;2024-02-26T07:07:05;21.80;;;19.60;;
60665;SDS011;59128;44.642;21.188;2024-02-26T07:09:31;22.00;;;19.70;;
60665;SDS011;59128;44.642;21.188;2024-02-26T07:11:57;22.92;;;20.23;;
60665;SDS011;59128;44.642;21.188;2024-02-26T07:14:23;22.63;;;20.33;;
60665;SDS011;59128;44.642;21.188;2024-02-26T07:16:50;21.08;;;18.90;;
60665;SDS011;59128;44.642;21.188;2024-02-26T07:19:16;22.30;;;19.92;;
60665;SDS011;59128;44.642;21.188;2024-02-26T07:21:42;19.83;;;17.83;;
60665;SDS011;59128;44.642;21.188;2024-02-26T07:24:08;20.83;;;18.73;;
60665;SDS011;59128;44.642;21.188;2024-02-26T07:26:34;20.30;;;18.20;;
60665;SDS011;59128;44.642;21.188;2024-02-26T07:29:00;20.10;;;17.88;;
60665;SDS011;59128;44.642;21.188;2024-02-26T07:31:26;19.60;;;17.63;;
60665;SDS011;59128;44.642;21.188;2024-02-26T07:33:52;18.98;;;16.98;;
60665;SDS011;59128;44.642;21.188;2024-02-26T07:36:18;19.10;;;17.13;;
60665;SDS011;59128;44.642;21.188;2024-02-26T07:38:44;20.00;;;17.42;;
60665;SDS011;59128;44.642;21.188;2024-02-26T07:41:11;18.00;;;16.20;;
60665;SDS011;59128;44.642;21.188;2024-02-26T07:43:37;18.52;;;16.63;;
60665;SDS011;59128;44.642;21.188;2024-02-26T07:46:03;17.42;;;15.70;;
60665;SDS011;59128;44.642;21.188;2024-02-26T07:48:29;17.55;;;15.70;;
60665;SDS011;59128;44.642;21.188;2024-02-26T07:50:55;18.90;;;16.90;;
60665;SDS011;59128;44.642;21.188;2024-02-26T07:53:22;16.48;;;14.73;;
60665;SDS011;59128;44.642;21.188;2024-02-26T07:55:48;19.25;;;17.25;;
60665;SDS011;59128;44.642;21.188;2024-02-26T07:58:14;17.60;;;15.80;;
60665;SDS011;59128;44.642;21.188;2024-02-26T08:00:40;18.55;;;16.35;;
60665;SDS011;59128;44.642;21.188;2024-02-26T08:03:06;29.05;;;16.08;;
60665;SDS011;59128;44.642;21.188;2024-02-26T08:05:33;20.05;;;16.38;;
60665;SDS011;59128;44.642;21.188;2024-02-26T08:07:59;19.27;;;14.00;;
60665;SDS011;59128;44.642;21.188;2024-02-26T08:10:25;15.90;;;13.77;;
60665;SDS011;59128;44.642;21.188;2024-02-26T08:12:51;14.40;;;12.90;;
60665;SDS011;59128;44.642;21.188;2024-02-26T08:15:17;15.57;;;13.65;;
60665;SDS011;59128;44.642;21.188;2024-02-26T08:17:43;15.43;;;13.82;;
60665;SDS011;59128;44.642;21.188;2024-02-26T08:20:10;13.55;;;12.15;;
60665;SDS011;59128;44.642;21.188;2024-02-26T08:22:36;13.02;;;11.73;;
60665;SDS011;59128;44.642;21.188;2024-02-26T08:25:04;16.42;;;13.65;;
60665;SDS011;59128;44.642;21.188;2024-02-26T08:27:32;11.98;;;10.77;;
60665;SDS011;59128;44.642;21.188;2024-02-26T08:29:58;14.73;;;12.95;;
60665;SDS011;59128;44.642;21.188;2024-02-26T08:32:24;12.02;;;10.75;;
60665;SDS011;59128;44.642;21.188;2024-02-26T08:34:50;14.35;;;11.48;;
60665;SDS011;59128;44.642;21.188;2024-02-26T08:37:16;14.95;;;12.38;;
60665;SDS011;59128;44.642;21.188;2024-02-26T08:39:42;12.68;;;10.20;;
60665;SDS011;59128;44.642;21.188;2024-02-26T08:42:08;16.20;;;11.63;;
60665;SDS011;59128;44.642;21.188;2024-02-26T08:44:34;12.48;;;11.18;;
60665;SDS011;59128;44.642;21.188;2024-02-26T08:47:00;14.93;;;13.32;;
60665;SDS011;59128;44.642;21.188;2024-02-26T08:49:27;11.50;;;10.30;;
60665;SDS011;59128;44.642;21.188;2024-02-26T08:51:53;13.23;;;11.82;;
60665;SDS011;59128;44.642;21.188;2024-02-26T08:54:19;11.02;;;9.77;;
60665;SDS011;59128;44.642;21.188;2024-02-26T08:56:45;11.25;;;9.90;;
60665;SDS011;59128;44.642;21.188;2024-02-26T08:59:11;10.27;;;9.25;;
60665;SDS011;59128;44.642;21.188;2024-02-26T09:01:37;10.48;;;9.43;;
60665;SDS011;59128;44.642;21.188;2024-02-26T09:04:03;12.38;;;10.43;;
60665;SDS011;59128;44.642;21.188;2024-02-26T09:06:29;10.18;;;9.02;;
60665;SDS011;59128;44.642;21.188;2024-02-26T09:08:55;12.80;;;11.52;;
60665;SDS011;59128;44.642;21.188;2024-02-26T09:11:21;13.60;;;11.43;;
60665;SDS011;59128;44.642;21.188;2024-02-26T09:13:48;10.48;;;9.32;;
60665;SDS011;59128;44.642;21.188;2024-02-26T09:16:14;10.23;;;9.25;;
60665;SDS011;59128;44.642;21.188;2024-02-26T09:18:40;11.65;;;10.23;;
60665;SDS011;59128;44.642;21.188;2024-02-26T09:21:06;11.43;;;10.02;;
60665;SDS011;59128;44.642;21.188;2024-02-26T09:23:32;8.93;;;7.20;;
60665;SDS011;59128;44.642;21.188;2024-02-26T09:26:00;10.05;;;9.05;;
60665;SDS011;59128;44.642;21.188;2024-02-26T09:28:26;12.35;;;9.85;;
60665;SDS011;59128;44.642;21.188;2024-02-26T09:30:52;11.77;;;9.00;;
60665;SDS011;59128;44.642;21.188;2024-02-26T09:33:19;11.70;;;9.20;;
60665;SDS011;59128;44.642;21.188;2024-02-26T09:35:45;9.38;;;7.80;;
60665;SDS011;59128;44.642;21.188;2024-02-26T09:38:11;9.60;;;8.05;;
60665;SDS011;59128;44.642;21.188;2024-02-26T09:40:37;8.63;;;7.72;;
60665;SDS011;59128;44.642;21.188;2024-02-26T09:43:05;10.50;;;8.50;;
60665;SDS011;59128;44.642;21.188;2024-02-26T09:45:32;10.15;;;8.60;;
60665;SDS011;59128;44.642;21.188;2024-02-26T09:47:59;10.63;;;8.70;;
60665;SDS011;59128;44.642;21.188;2024-02-26T09:50:25;8.82;;;7.93;;
60665;SDS011;59128;44.642;21.188;2024-02-26T09:52:51;12.50;;;11.20;;
60665;SDS011;59128;44.642;21.188;2024-02-26T09:55:18;10.27;;;9.23;;
60665;SDS011;59128;44.642;21.188;2024-02-26T09:57:45;10.60;;;9.10;;
60665;SDS011;59128;44.642;21.188;2024-02-26T10:00:16;14.23;;;10.83;;
60665;SDS011;59128;44.642;21.188;2024-02-26T10:02:45;8.63;;;7.43;;
60665;SDS011;59128;44.642;21.188;2024-02-26T10:05:17;12.30;;;10.73;;
60665;SDS011;59128;44.642;21.188;2024-02-26T10:07:49;11.80;;;9.57;;
60665;SDS011;59128;44.642;21.188;2024-02-26T10:10:15;12.45;;;11.15;;
60665;SDS011;59128;44.642;21.188;2024-02-26T10:12:42;13.45;;;11.88;;
60665;SDS011;59128;44.642;21.188;2024-02-26T10:15:08;15.38;;;12.75;;
60665;SDS011;59128;44.642;21.188;2024-02-26T10:17:35;15.02;;;11.50;;
60665;SDS011;59128;44.642;21.188;2024-02-26T10:20:11;10.70;;;9.60;;
60665;SDS011;59128;44.642;21.188;2024-02-26T10:22:39;14.25;;;11.48;;
60665;SDS011;59128;44.642;21.188;2024-02-26T10:25:05;12.35;;;10.80;;
60665;SDS011;59128;44.642;21.188;2024-02-26T10:27:33;9.47;;;8.57;;
60665;SDS011;59128;44.642;21.188;2024-02-26T10:30:02;14.32;;;12.82;;
60665;SDS011;59128;44.642;21.188;2024-02-26T10:32:28;18.30;;;15.38;;
60665;SDS011;59128;44.642;21.188;2024-02-26T10:34:57;15.60;;;12.68;;
60665;SDS011;59128;44.642;21.188;2024-02-26T10:37:23;15.05;;;11.23;;
60665;SDS011;59128;44.642;21.188;2024-02-26T10:39:50;15.23;;;13.30;;
60665;SDS011;59128;44.642;21.188;2024-02-26T10:42:16;17.77;;;15.07;;
60665;SDS011;59128;44.642;21.188;2024-02-26T10:44:44;16.15;;;11.55;;
60665;SDS011;59128;44.642;21.188;2024-02-26T10:47:10;25.02;;;20.30;;
60665;SDS011;59128;44.642;21.188;2024-02-26T10:49:36;12.75;;;11.43;;
60665;SDS011;59128;44.642;21.188;2024-02-26T10:52:03;30.97;;;26.43;;
60665;SDS011;59128;44.642;21.188;2024-02-26T10:54:31;16.88;;;15.18;;
60665;SDS011;59128;44.642;21.188;2024-02-26T10:56:58;13.73;;;12.05;;
60665;SDS011;59128;44.642;21.188;2024-02-26T10:59:24;10.63;;;9.10;;
60665;SDS011;59128;44.642;21.188;2024-02-26T11:01:51;9.07;;;8.15;;
60665;SDS011;59128;44.642;21.188;2024-02-26T11:04:18;11.30;;;9.53;;
60665;SDS011;59128;44.642;21.188;2024-02-26T11:06:47;11.32;;;9.30;;
60665;SDS011;59128;44.642;21.188;2024-02-26T11:09:14;14.07;;;11.88;;
60665;SDS011;59128;44.642;21.188;2024-02-26T11:11:40;13.35;;;11.77;;
60665;SDS011;59128;44.642;21.188;2024-02-26T11:14:08;11.43;;;10.20;;
60665;SDS011;59128;44.642;21.188;2024-02-26T11:16:35;15.18;;;13.50;;
60665;SDS011;59128;44.642;21.188;2024-02-26T11:19:02;13.43;;;12.10;;
60665;SDS011;59128;44.642;21.188;2024-02-26T11:21:28;12.07;;;9.87;;
60665;SDS011;59128;44.642;21.188;2024-02-26T11:24:11;16.13;;;13.57;;
60665;SDS011;59128;44.642;21.188;2024-02-26T11:26:48;15.52;;;13.50;;
60665;SDS011;59128;44.642;21.188;2024-02-26T11:29:21;17.33;;;13.68;;
60665;SDS011;59128;44.642;21.188;2024-02-26T11:31:47;15.07;;;11.23;;
60665;SDS011;59128;44.642;21.188;2024-02-26T11:34:14;35.90;;;22.10;;
60665;SDS011;59128;44.642;21.188;2024-02-26T11:36:40;67.00;;;34.80;;
60665;SDS011;59128;44.642;21.188;2024-02-26T11:39:07;52.90;;;26.70;;
60665;SDS011;59128;44.642;21.188;2024-02-26T11:41:33;61.47;;;38.27;;
60665;SDS011;59128;44.642;21.188;2024-02-26T11:44:03;21.15;;;15.50;;
60665;SDS011;59128;44.642;21.188;2024-02-26T11:46:41;16.08;;;13.90;;
60665;SDS011;59128;44.642;21.188;2024-02-26T11:51:56;15.25;;;12.63;;
60665;SDS011;59128;44.642;21.188;2024-02-26T11:54:43;15.98;;;14.20;;
60665;SDS011;59128;44.642;21.188;2024-02-26T11:59:51;21.92;;;17.60;;
60665;SDS011;59128;44.642;21.188;2024-02-26T12:05:05;25.08;;;18.70;;
60665;SDS011;59128;44.642;21.188;2024-02-26T12:07:31;19.65;;;15.40;;
60665;SDS011;59128;44.642;21.188;2024-02-26T12:10:13;31.23;;;24.65;;
60665;SDS011;59128;44.642;21.188;2024-02-26T12:12:40;20.87;;;16.60;;
60665;SDS011;59128;44.642;21.188;2024-02-26T12:15:07;16.85;;;13.73;;
60665;SDS011;59128;44.642;21.188;2024-02-26T12:17:36;21.45;;;19.10;;
60665;SDS011;59128;44.642;21.188;2024-02-26T12:20:09;28.75;;;20.95;;
60665;SDS011;59128;44.642;21.188;2024-02-26T12:22:35;16.17;;;13.50;;
60665;SDS011;59128;44.642;21.188;2024-02-26T12:25:02;15.93;;;13.35;;
60665;SDS011;59128;44.642;21.188;2024-02-26T12:27:28;18.73;;;15.68;;
60665;SDS011;59128;44.642;21.188;2024-02-26T12:29:54;15.43;;;12.63;;
60665;SDS011;59128;44.642;21.188;2024-02-26T12:32:20;18.85;;;15.48;;
60665;SDS011;59128;44.642;21.188;2024-02-26T12:34:47;17.00;;;11.55;;
60665;SDS011;59128;44.642;21.188;2024-02-26T12:37:14;17.55;;;12.85;;
60665;SDS011;59128;44.642;21.188;2024-02-26T12:39:40;14.80;;;11.43;;
60665;SDS011;59128;44.642;21.188;2024-02-26T12:42:07;17.80;;;14.07;;
60665;SDS011;59128;44.642;21.188;2024-02-26T12:44:33;14.18;;;12.15;;
60665;SDS011;59128;44.642;21.188;2024-02-26T12:46:59;14.18;;;11.82;;
60665;SDS011;59128;44.642;21.188;2024-02-26T12:49:27;24.42;;;17.77;;
60665;SDS011;59128;44.642;21.188;2024-02-26T12:51:53;18.13;;;14.38;;
60665;SDS011;59128;44.642;21.188;2024-02-26T12:54:26;19.58;;;16.65;;
60665;SDS011;59128;44.642;21.188;2024-02-26T12:56:52;17.48;;;13.25;;
60665;SDS011;59128;44.642;21.188;2024-02-26T12:59:18;27.75;;;18.17;;
60665;SDS011;59128;44.642;21.188;2024-02-26T13:01:44;16.00;;;13.98;;
60665;SDS011;59128;44.642;21.188;2024-02-26T13:04:11;13.55;;;11.00;;
60665;SDS011;59128;44.642;21.188;2024-02-26T13:06:37;14.70;;;11.47;;
60665;SDS011;59128;44.642;21.188;2024-02-26T13:09:06;15.55;;;12.23;;
60665;SDS011;59128;44.642;21.188;2024-02-26T13:11:34;16.90;;;14.33;;
60665;SDS011;59128;44.642;21.188;2024-02-26T13:14:00;16.40;;;14.65;;
60665;SDS011;59128;44.642;21.188;2024-02-26T13:16:26;13.70;;;11.82;;
60665;SDS011;59128;44.642;21.188;2024-02-26T13:18:52;20.17;;;17.10;;
60665;SDS011;59128;44.642;21.188;2024-02-26T13:21:18;13.85;;;12.45;;
60665;SDS011;59128;44.642;21.188;2024-02-26T13:23:51;19.58;;;16.20;;
60665;SDS011;59128;44.642;21.188;2024-02-26T13:26:21;16.63;;;14.27;;
60665;SDS011;59128;44.642;21.188;2024-02-26T13:28:59;14.10;;;11.77;;
60665;SDS011;59128;44.642;21.188;2024-02-26T13:31:25;16.45;;;13.82;;
60665;SDS011;59128;44.642;21.188;2024-02-26T13:33:51;15.45;;;12.18;;
60665;SDS011;59128;44.642;21.188;2024-02-26T13:36:21;15.45;;;12.55;;
60665;SDS011;59128;44.642;21.188;2024-02-26T13:38:51;14.07;;;12.00;;
60665;SDS011;59128;44.642;21.188;2024-02-26T13:41:18;11.65;;;10.35;;
60665;SDS011;59128;44.642;21.188;2024-02-26T13:43:44;15.37;;;12.23;;
60665;SDS011;59128;44.642;21.188;2024-02-26T13:46:10;13.43;;;12.02;;
60665;SDS011;59128;44.642;21.188;2024-02-26T13:48:37;17.73;;;15.03;;
60665;SDS011;59128;44.642;21.188;2024-02-26T13:51:04;16.63;;;13.73;;
60665;SDS011;59128;44.642;21.188;2024-02-26T13:53:30;13.85;;;9.75;;
60665;SDS011;59128;44.642;21.188;2024-02-26T13:55:56;11.50;;;9.88;;
60665;SDS011;59128;44.642;21.188;2024-02-26T13:58:23;12.00;;;10.25;;
60665;SDS011;59128;44.642;21.188;2024-02-26T14:00:52;13.23;;;11.13;;
60665;SDS011;59128;44.642;21.188;2024-02-26T14:03:18;17.10;;;13.00;;
60665;SDS011;59128;44.642;21.188;2024-02-26T14:05:44;10.25;;;9.13;;
60665;SDS011;59128;44.642;21.188;2024-02-26T14:08:10;13.40;;;10.85;;
60665;SDS011;59128;44.642;21.188;2024-02-26T14:10:36;12.33;;;10.50;;
60665;SDS011;59128;44.642;21.188;2024-02-26T14:13:04;14.35;;;10.77;;
60665;SDS011;59128;44.642;21.188;2024-02-26T14:15:36;18.27;;;13.55;;
60665;SDS011;59128;44.642;21.188;2024-02-26T14:18:04;18.43;;;13.90;;